Time;durP1;ratioP1;P1;durP2;ratioP2;P2;SDS_P1;SDS_P2;PMS_P1;PMS_P2;Temp;Humidity;BMP_temperature;BMP_pressure;BME280_temperature;BME280_humidity;BME280_pressure;Samples;Min_cycle;Max_cycle;Signal;HPM_P1;HPM_P2
2021/03/20 00:02:49;;;;;;;7.95;2.65;;;;;;;-1.35;60.35;100646.23;147769;1147;104585;-76
2021/03/20 00:05:53;;;;;;;9.90;3.83;;;;;;;-1.41;59.52;100649.12;147735;1147;104569;-76
2021/03/20 00:08:58;;;;;;;7.35;3.05;;;;;;;-1.42;59.44;100652.67;147808;1147;104492;-75
2021/03/20 00:12:02;;;;;;;8.68;2.85;;;;;;;-1.43;59.71;100653.58;147791;1147;104678;-78
2021/03/20 00:15:08;;;;;;;7.92;2.90;;;;;;;-1.37;59.78;100653.30;147790;1147;104477;-75
2021/03/20 00:18:13;;;;;;;6.85;2.62;;;;;;;-1.31;60.14;100646.95;147819;1147;104494;-74
2021/03/20 00:21:16;;;;;;;7.03;2.13;;;;;;;-1.35;59.60;100653.23;147807;1147;104471;-79
2021/03/20 00:24:19;;;;;;;6.80;2.40;;;;;;;-1.37;58.95;100657.69;147754;1147;104467;-78
2021/03/20 00:27:23;;;;;;;7.60;2.50;;;;;;;-1.46;58.81;100658.96;147659;1146;104611;-77
2021/03/20 00:30:27;;;;;;;7.35;2.25;;;;;;;-1.53;59.78;100658.36;147587;1147;104489;-77
2021/03/20 00:33:31;;;;;;;5.65;2.58;;;;;;;-1.56;60.46;100649.78;147806;1146;104674;-76
2021/03/20 00:36:34;;;;;;;4.67;2.60;;;;;;;-1.56;59.35;100652.41;147543;1147;104469;-79
2021/03/20 00:39:37;;;;;;;5.10;2.27;;;;;;;-1.62;59.32;100654.39;147772;1147;104476;-76
2021/03/20 00:42:41;;;;;;;7.12;2.40;;;;;;;-1.66;59.22;100652.79;147731;1147;104569;-78
2021/03/20 00:45:44;;;;;;;6.13;2.40;;;;;;;-1.68;59.29;100653.78;147776;1147;104559;-77
2021/03/20 00:48:47;;;;;;;13.50;5.80;;;;;;;-1.69;59.25;100663.41;147740;1147;104457;-77
2021/03/20 00:51:50;;;;;;;11.63;3.50;;;;;;;-1.70;59.14;100656.45;147719;1146;104455;-77
2021/03/20 00:54:54;;;;;;;8.70;3.62;;;;;;;-1.73;59.22;100664.45;147816;1146;104476;-73
2021/03/20 00:57:57;;;;;;;11.43;3.80;;;;;;;-1.76;59.76;100672.42;147761;1146;104713;-77
2021/03/20 01:01:04;;;;;;;10.07;3.73;;;;;;;-1.83;60.36;100660.50;147775;1146;104452;-77
2021/03/20 01:04:07;;;;;;;9.38;3.65;;;;;;;-1.88;59.77;100672.94;147814;1147;104546;-79
2021/03/20 01:07:11;;;;;;;11.60;4.00;;;;;;;-1.94;59.32;100665.32;147759;1147;104500;-75
2021/03/20 01:10:18;;;;;;;12.07;4.03;;;;;;;-2.02;60.02;100661.28;147749;1147;104592;-74
2021/03/20 01:13:21;;;;;;;10.85;3.70;;;;;;;-2.10;59.15;100668.56;147722;1146;104620;-73
2021/03/20 01:16:25;;;;;;;15.93;4.47;;;;;;;-2.20;58.83;100667.24;147564;1147;104895;-72
2021/03/20 01:19:28;;;;;;;12.33;4.00;;;;;;;-2.28;59.99;100667.55;147743;1146;104462;-70
2021/03/20 01:22:32;;;;;;;9.65;4.00;;;;;;;-2.34;59.68;100664.34;147724;1147;104496;-75
2021/03/20 01:25:35;;;;;;;10.60;4.03;;;;;;;-2.41;59.45;100655.88;147639;1146;104550;-74
2021/03/20 01:28:40;;;;;;;8.10;3.40;;;;;;;-2.48;59.21;100660.52;147768;1147;104632;-73
2021/03/20 01:31:44;;;;;;;7.90;3.50;;;;;;;-2.53;58.47;100666.83;147767;1147;104547;-76
2021/03/20 01:34:47;;;;;;;12.20;4.25;;;;;;;-2.63;58.62;100666.33;147786;1148;104464;-78
2021/03/20 01:37:51;;;;;;;9.68;4.08;;;;;;;-2.70;59.18;100670.08;147748;1147;104553;-76
2021/03/20 01:40:57;;;;;;;16.12;5.58;;;;;;;-2.80;59.41;100672.19;147726;1147;104476;-76
2021/03/20 01:44:00;;;;;;;25.12;7.60;;;;;;;-2.88;59.67;100672.47;147738;1147;104675;-75
2021/03/20 01:47:10;;;;;;;34.60;10.63;;;;;;;-2.93;59.82;100669.17;147765;1147;104567;-75
2021/03/20 01:50:20;;;;;;;27.98;9.58;;;;;;;-3.02;59.47;100672.99;147756;1146;104397;-77
2021/03/20 01:53:33;;;;;;;36.60;12.35;;;;;;;-3.07;60.25;100669.69;147688;1148;104555;-78
2021/03/20 01:56:43;;;;;;;31.35;10.05;;;;;;;-3.10;59.55;100671.55;147750;1145;104604;-76
2021/03/20 01:59:46;;;;;;;49.08;14.15;;;;;;;-3.10;59.50;100687.22;147737;1147;104639;-76
2021/03/20 02:02:50;;;;;;;38.50;12.55;;;;;;;-3.11;59.27;100680.31;147769;1147;104474;-76
2021/03/20 02:05:53;;;;;;;39.23;12.10;;;;;;;-3.14;59.80;100683.02;147710;1147;104553;-77
2021/03/20 02:09:01;;;;;;;35.63;11.83;;;;;;;-3.22;60.31;100691.97;147707;1146;104487;-75
2021/03/20 02:12:16;;;;;;;33.23;11.07;;;;;;;-3.25;59.98;100689.48;147776;1146;104447;-76
2021/03/20 02:15:28;;;;;;;42.43;12.80;;;;;;;-3.30;59.86;100696.61;147601;1147;104617;-75
2021/03/20 02:18:43;;;;;;;28.90;8.97;;;;;;;-3.35;60.48;100695.91;147749;1148;104565;-71
2021/03/20 02:21:56;;;;;;;32.53;9.95;;;;;;;-3.39;60.45;100705.63;147891;1147;104476;-70
2021/03/20 02:25:40;;;;;;;20.50;6.80;;;;;;;-3.44;59.95;100701.48;147666;1148;104451;-72
2021/03/20 02:29:16;;;;;;;27.85;9.13;;;;;;;-3.41;59.96;100706.56;147707;1147;104467;-74
2021/03/20 02:32:51;;;;;;;22.80;8.90;;;;;;;-3.46;60.41;100705.90;147527;1148;104462;-70
2021/03/20 02:36:01;;;;;;;25.88;8.33;;;;;;;-3.49;60.20;100705.98;147716;1147;104579;-72
2021/03/20 02:39:11;;;;;;;15.10;5.70;;;;;;;-3.51;60.25;100710.41;147674;1147;104454;-71
2021/03/20 02:42:24;;;;;;;27.82;9.10;;;;;;;-3.53;60.64;100701.78;147744;1147;104550;-72
2021/03/20 02:45:41;;;;;;;26.05;8.73;;;;;;;-3.55;60.46;100707.89;147772;1148;104550;-77
2021/03/20 02:48:55;;;;;;;26.10;9.35;;;;;;;-3.58;60.39;100704.53;147725;1147;104669;-73
2021/03/20 02:52:04;;;;;;;27.10;9.48;;;;;;;-3.63;60.38;100720.34;147764;1147;104530;-73
2021/03/20 02:55:15;;;;;;;20.32;6.40;;;;;;;-3.68;60.41;100717.03;147430;1147;104470;-73
2021/03/20 02:58:23;;;;;;;27.75;9.18;;;;;;;-3.67;60.82;100721.36;147477;1147;104503;-73
2021/03/20 03:01:28;;;;;;;22.80;6.50;;;;;;;-3.73;60.99;100721.57;147362;1147;104538;-74
2021/03/20 03:04:38;;;;;;;20.95;8.00;;;;;;;-3.72;61.15;100718.04;147453;1148;104684;-73
2021/03/20 03:07:44;;;;;;;19.57;7.00;;;;;;;-3.76;61.01;100729.48;147634;1146;104501;-75
2021/03/20 03:10:51;;;;;;;15.48;5.40;;;;;;;-3.82;61.84;100730.53;147728;1148;104489;-72
2021/03/20 03:14:01;;;;;;;19.40;7.33;;;;;;;-3.85;61.48;100734.98;147760;1147;104553;-75
2021/03/20 03:17:06;;;;;;;26.37;8.77;;;;;;;-3.84;61.47;100739.31;147779;1147;104544;-78
2021/03/20 03:20:16;;;;;;;17.90;6.50;;;;;;;-3.84;61.58;100737.55;147803;1147;104582;-75
2021/03/20 03:23:22;;;;;;;27.35;9.50;;;;;;;-3.83;61.69;100746.22;147784;1147;104544;-75
2021/03/20 03:26:29;;;;;;;20.33;8.17;;;;;;;-3.86;61.50;100743.73;147725;1147;104554;-78
2021/03/20 03:29:35;;;;;;;16.87;6.45;;;;;;;-3.88;61.53;100742.92;147764;1147;104601;-75
2021/03/20 03:32:43;;;;;;;18.92;6.60;;;;;;;-3.91;61.97;100753.44;147749;1147;104511;-78
2021/03/20 03:35:49;;;;;;;20.37;6.60;;;;;;;-3.99;62.34;100754.53;147811;1148;104582;-74
2021/03/20 03:38:56;;;;;;;15.20;6.30;;;;;;;-4.05;61.63;100746.91;147804;1147;104638;-74
2021/03/20 03:42:01;;;;;;;22.50;8.33;;;;;;;-4.04;61.65;100763.39;147683;1148;104475;-75
2021/03/20 03:45:11;;;;;;;21.10;7.72;;;;;;;-4.02;61.99;100759.86;147767;1148;104470;-72
2021/03/20 03:48:16;;;;;;;18.13;5.60;;;;;;;-4.01;62.35;100763.31;147820;1147;104426;-73
2021/03/20 03:51:19;;;;;;;14.13;5.58;;;;;;;-4.07;62.20;100761.74;147761;1146;104951;-71
2021/03/20 03:54:22;;;;;;;16.17;5.72;;;;;;;-4.06;61.68;100775.61;147810;1147;104541;-74
2021/03/20 03:57:58;;;;;;;15.60;6.40;;;;;;;-4.15;62.70;100769.80;147728;1147;104473;-72
2021/03/20 04:01:10;;;;;;;12.78;5.67;;;;;;;-4.21;62.27;100766.54;147758;1147;104546;-73
2021/03/20 04:04:36;;;;;;;15.70;6.28;;;;;;;-4.22;62.74;100776.08;147779;1148;104473;-74
2021/03/20 04:07:53;;;;;;;31.47;9.37;;;;;;;-4.27;63.53;100769.30;147757;1147;104553;-72
2021/03/20 04:11:00;;;;;;;53.52;13.18;;;;;;;-4.29;63.28;100771.11;147831;1147;104561;-72
2021/03/20 04:14:09;;;;;;;44.85;11.88;;;;;;;-4.32;62.71;100773.82;147569;1146;104546;-73
2021/03/20 04:17:20;;;;;;;32.60;8.28;;;;;;;-4.38;62.52;100774.85;147737;1147;104536;-71
2021/03/20 04:20:27;;;;;;;56.58;14.63;;;;;;;-4.36;62.66;100781.72;147562;1147;104474;-72
2021/03/20 04:23:33;;;;;;;41.18;11.55;;;;;;;-4.36;63.12;100784.32;147748;1148;104588;-72
2021/03/20 04:26:41;;;;;;;34.17;10.20;;;;;;;-4.35;62.60;100786.04;147748;1147;104550;-71
2021/03/20 04:29:52;;;;;;;33.50;9.20;;;;;;;-4.36;63.70;100778.27;147364;1147;104550;-77
2021/03/20 04:33:04;;;;;;;28.85;8.08;;;;;;;-4.42;63.05;100781.90;147438;1147;104459;-75
2021/03/20 04:36:15;;;;;;;217.03;53.45;;;;;;;-4.43;62.96;100777.58;147601;1147;104547;-75
2021/03/20 04:39:22;;;;;;;106.85;28.62;;;;;;;-4.43;63.12;100793.20;147708;1147;104471;-77
2021/03/20 04:42:29;;;;;;;136.30;42.40;;;;;;;-4.39;62.69;100784.43;147704;1147;104464;-76
2021/03/20 04:45:38;;;;;;;121.05;44.30;;;;;;;-4.41;63.02;100791.41;147718;1147;104574;-76
2021/03/20 04:48:43;;;;;;;103.27;32.98;;;;;;;-4.46;63.20;100793.31;147721;1147;104473;-76
2021/03/20 04:51:51;;;;;;;89.92;28.85;;;;;;;-4.45;62.72;100800.21;147719;1147;104822;-74
2021/03/20 04:54:55;;;;;;;151.85;43.75;;;;;;;-4.43;63.22;100802.78;147592;1147;104604;-74
2021/03/20 04:58:05;;;;;;;66.37;20.45;;;;;;;-4.45;63.49;100800.21;147632;1147;104672;-76
2021/03/20 05:01:19;;;;;;;85.40;29.07;;;;;;;-4.41;63.37;100800.98;147308;1147;104617;-75
2021/03/20 05:04:27;;;;;;;25.77;10.75;;;;;;;-4.35;63.35;100809.48;147522;1147;104938;-74
2021/03/20 05:07:33;;;;;;;71.22;23.00;;;;;;;-4.38;63.81;100806.11;147447;1147;104409;-74
2021/03/20 05:10:42;;;;;;;61.13;19.70;;;;;;;-4.40;63.13;100808.75;147290;1147;104473;-75
2021/03/20 05:13:51;;;;;;;106.25;34.27;;;;;;;-4.36;63.19;100814.73;147311;1146;104499;-74
2021/03/20 05:16:56;;;;;;;77.03;26.70;;;;;;;-4.40;63.24;100803.55;147268;1148;104962;-75
2021/03/20 05:20:00;;;;;;;38.13;18.17;;;;;;;-4.38;63.70;100814.77;147420;1147;104514;-79
2021/03/20 05:23:04;;;;;;;30.88;14.55;;;;;;;-4.34;62.93;100820.75;147460;1147;104474;-76
2021/03/20 05:26:07;;;;;;;30.92;15.23;;;;;;;-4.32;63.19;100816.35;147753;1147;104516;-76
2021/03/20 05:29:10;;;;;;;28.83;12.63;;;;;;;-4.31;63.25;100827.61;147346;1147;104517;-78
2021/03/20 05:32:16;;;;;;;19.70;9.23;;;;;;;-4.28;63.64;100828.38;147268;1147;104966;-76
2021/03/20 05:35:27;;;;;;;17.12;7.85;;;;;;;-4.24;64.12;100835.21;147251;1147;104470;-74
2021/03/20 05:38:30;;;;;;;16.25;6.85;;;;;;;-4.23;63.57;100828.27;147562;1147;104469;-74
2021/03/20 05:41:46;;;;;;;23.27;9.30;;;;;;;-4.10;63.81;100841.77;147263;1147;104599;-74
2021/03/20 05:45:03;;;;;;;24.17;10.17;;;;;;;-4.00;63.64;100841.46;147837;1147;104562;-78
2021/03/20 05:48:17;;;;;;;24.43;9.53;;;;;;;-3.94;63.42;100840.42;147528;1147;104489;-76
2021/03/20 05:51:33;;;;;;;48.83;19.30;;;;;;;-3.82;63.60;100840.04;147757;1147;104489;-75
2021/03/20 05:54:57;;;;;;;38.05;15.18;;;;;;;-3.79;63.47;100844.30;147790;1147;104470;-79
2021/03/20 05:58:11;;;;;;;30.43;12.18;;;;;;;-3.75;63.75;100843.33;147790;1147;104552;-78
2021/03/20 06:01:24;;;;;;;14.38;5.30;;;;;;;-3.64;64.03;100856.86;147800;1147;104624;-76
2021/03/20 06:04:36;;;;;;;26.90;10.18;;;;;;;-3.60;63.71;100858.50;147753;1146;104427;-77
2021/03/20 06:08:01;;;;;;;14.03;6.13;;;;;;;-3.49;63.09;100854.69;147784;1147;104383;-73
2021/03/20 06:11:15;;;;;;;18.53;7.20;;;;;;;-3.47;63.11;100855.48;147690;1147;104546;-78
2021/03/20 06:14:41;;;;;;;20.08;6.80;;;;;;;-3.37;63.85;100843.84;147547;1147;104484;-76
2021/03/20 06:18:03;;;;;;;16.37;6.75;;;;;;;-3.23;63.79;100857.31;147707;1147;104533;-76
2021/03/20 06:21:12;;;;;;;17.48;6.15;;;;;;;-3.23;62.68;100862.53;147638;1146;104396;-74
2021/03/20 06:25:02;;;;;;;17.37;6.33;;;;;;;-3.24;63.26;100855.59;147695;1147;104550;-75
2021/03/20 06:28:06;;;;;;;11.00;5.47;;;;;;;-3.12;63.17;100861.31;147095;1151;104549;-72
2021/03/20 06:31:19;;;;;;;26.52;11.43;;;;;;;-3.07;63.13;100872.47;147184;1150;104808;-69
2021/03/20 06:34:27;;;;;;;22.35;10.03;;;;;;;-3.05;62.35;100865.44;147687;1147;105046;-76
2021/03/20 06:37:35;;;;;;;20.27;9.33;;;;;;;-3.04;62.95;100873.22;147696;1148;104553;-74
2021/03/20 06:40:49;;;;;;;18.42;7.37;;;;;;;-2.97;63.23;100868.63;147734;1147;104661;-77
2021/03/20 06:43:58;;;;;;;15.63;6.25;;;;;;;-2.87;62.58;100871.78;147732;1148;104895;-78
2021/03/20 06:47:03;;;;;;;13.03;5.10;;;;;;;-2.92;62.52;100871.95;147773;1148;104547;-80
2021/03/20 06:50:17;;;;;;;12.47;5.03;;;;;;;-2.92;62.92;100881.55;147755;1148;104460;-78
2021/03/20 06:53:33;;;;;;;12.63;5.53;;;;;;;-2.90;61.95;100880.58;147297;1147;104511;-76
2021/03/20 06:56:37;;;;;;;16.65;6.22;;;;;;;-2.78;62.52;100869.70;147501;1147;104493;-80
2021/03/20 06:59:40;;;;;;;11.30;5.20;;;;;;;-2.62;62.62;100884.84;147432;1147;104476;-80
2021/03/20 07:02:54;;;;;;;16.37;5.25;;;;;;;-2.48;61.80;100879.12;147518;1146;104546;-79
2021/03/20 07:06:05;;;;;;;13.20;5.05;;;;;;;-2.46;62.75;100882.56;147749;1147;104492;-80
2021/03/20 07:09:09;;;;;;;16.30;6.65;;;;;;;-2.44;61.31;100881.59;147495;1147;104482;-80
2021/03/20 07:12:14;;;;;;;15.93;8.18;;;;;;;-2.49;61.06;100880.89;147687;1147;104925;-76
2021/03/20 07:15:21;;;;;;;13.13;4.60;;;;;;;-2.49;61.54;100873.06;147410;1147;104957;-83
2021/03/20 07:18:43;;;;;;;10.53;4.12;;;;;;;-2.34;62.82;100883.89;147956;1147;104469;-80
2021/03/20 07:22:01;;;;;;;16.43;7.60;;;;;;;-2.22;61.81;100889.50;147730;1146;104584;-82
2021/03/20 07:25:25;;;;;;;11.68;5.12;;;;;;;-2.29;60.46;100893.27;147738;1147;104549;-80
2021/03/20 07:28:29;;;;;;;11.40;4.55;;;;;;;-2.22;62.10;100901.73;147895;1147;104480;-80
2021/03/20 07:31:50;;;;;;;17.73;8.23;;;;;;;-2.09;61.67;100897.76;147775;1147;104457;-77
2021/03/20 07:34:57;;;;;;;8.40;3.95;;;;;;;-2.10;60.72;100898.66;147826;1147;104549;-76
2021/03/20 07:38:26;;;;;;;9.27;4.07;;;;;;;-1.95;62.01;100904.24;147413;1146;104542;-78
2021/03/20 07:41:42;;;;;;;8.43;3.77;;;;;;;-1.83;60.20;100909.00;147351;1147;104548;-76
2021/03/20 07:44:55;;;;;;;10.35;4.70;;;;;;;-1.74;60.87;100915.66;147540;1147;104458;-76
2021/03/20 07:48:04;;;;;;;7.42;3.42;;;;;;;-1.66;59.69;100917.06;147695;1148;104535;-77
2021/03/20 07:51:10;;;;;;;8.43;3.83;;;;;;;-1.59;58.47;100909.84;147492;1147;104623;-79
2021/03/20 07:54:21;;;;;;;8.75;4.17;;;;;;;-1.47;59.81;100913.73;147966;1147;104511;-74
2021/03/20 07:57:24;;;;;;;7.12;3.35;;;;;;;-1.42;59.17;100924.89;147530;1146;104451;-74
2021/03/20 08:00:31;;;;;;;6.95;3.45;;;;;;;-1.45;57.85;100925.00;147857;1148;104468;-76
2021/03/20 08:03:46;;;;;;;6.78;2.87;;;;;;;-1.38;57.72;100926.48;147792;1146;104461;-71
2021/03/20 08:06:51;;;;;;;8.98;3.62;;;;;;;-1.32;55.35;100938.47;147877;1147;104526;-73
2021/03/20 08:10:16;;;;;;;8.80;3.58;;;;;;;-1.25;58.31;100935.55;147828;1147;104538;-74
2021/03/20 08:13:29;;;;;;;6.12;3.30;;;;;;;-1.21;56.63;100937.12;147845;1147;104656;-74
2021/03/20 08:16:32;;;;;;;7.28;2.72;;;;;;;-1.13;57.78;100944.68;147812;1147;104547;-76
2021/03/20 08:19:36;;;;;;;8.80;3.20;;;;;;;-0.96;59.31;100936.15;147761;1146;104465;-75
2021/03/20 08:23:16;;;;;;;7.10;3.55;;;;;;;-0.82;58.33;100938.20;147644;1147;104457;-76
2021/03/20 08:26:32;;;;;;;6.87;3.05;;;;;;;-0.82;54.36;100949.52;147782;1147;104542;-75
2021/03/20 08:30:10;;;;;;;6.08;2.47;;;;;;;-0.80;56.54;100949.46;147420;1147;104535;-76
2021/03/20 08:33:29;;;;;;;7.35;3.22;;;;;;;-0.69;57.10;100944.63;147483;1148;104546;-75
2021/03/20 08:36:53;;;;;;;6.55;3.25;;;;;;;-0.55;56.01;100953.69;147778;1146;104492;-73
2021/03/20 08:40:15;;;;;;;9.40;4.57;;;;;;;-0.49;56.08;100946.40;147779;1148;104627;-69
2021/03/20 08:43:53;;;;;;;6.83;3.47;;;;;;;-0.36;54.01;100961.63;147715;1147;104552;-71
2021/03/20 08:47:07;;;;;;;7.33;3.62;;;;;;;-0.47;53.67;100959.45;147410;1148;104550;-72
2021/03/20 08:50:21;;;;;;;10.90;6.67;;;;;;;-0.36;54.62;100957.22;147655;1146;104461;-71
2021/03/20 08:53:34;;;;;;;5.67;2.67;;;;;;;-0.36;53.92;100956.38;147655;1147;104460;-73
2021/03/20 08:56:52;;;;;;;8.70;3.27;;;;;;;-0.54;55.18;100958.87;147583;1147;104537;-73
2021/03/20 08:59:56;;;;;;;5.05;2.75;;;;;;;-0.34;55.88;100965.03;147789;1147;104570;-73
2021/03/20 09:03:05;;;;;;;7.50;3.55;;;;;;;-0.11;55.41;100967.50;147539;1147;104546;-78
2021/03/20 09:06:20;;;;;;;16.10;9.68;;;;;;;0.07;56.00;100962.36;147358;1147;104472;-78
2021/03/20 09:09:28;;;;;;;27.55;15.55;;;;;;;0.28;55.42;100961.38;147614;1148;104481;-73
2021/03/20 09:12:35;;;;;;;6.90;3.52;;;;;;;0.39;52.34;100961.75;147801;1147;104563;-78
2021/03/20 09:15:44;;;;;;;8.63;4.60;;;;;;;0.45;52.12;100968.49;147790;1147;104577;-72
2021/03/20 09:18:48;;;;;;;6.05;3.60;;;;;;;0.52;53.14;100967.30;147667;1147;104534;-74
2021/03/20 09:21:52;;;;;;;6.62;3.70;;;;;;;0.72;53.45;100974.23;147730;1146;104564;-75
2021/03/20 09:25:01;;;;;;;7.47;2.80;;;;;;;0.88;53.05;100966.46;147846;1147;104464;-72
2021/03/20 09:28:13;;;;;;;7.10;3.47;;;;;;;0.97;53.90;100966.02;147949;1147;104494;-71
2021/03/20 09:31:45;;;;;;;17.27;10.27;;;;;;;1.08;51.71;100973.41;147501;1147;104559;-72
2021/03/20 09:34:52;;;;;;;9.35;4.47;;;;;;;1.17;53.87;100972.08;148056;1145;104469;-71
2021/03/20 09:37:59;;;;;;;6.95;3.62;;;;;;;1.35;52.13;100984.34;147388;1147;104477;-74
2021/03/20 09:41:06;;;;;;;6.40;2.70;;;;;;;1.43;51.27;100986.59;148020;1147;104543;-71
2021/03/20 09:44:26;;;;;;;5.28;2.70;;;;;;;1.48;51.34;100989.84;147391;1146;104620;-70
2021/03/20 09:47:50;;;;;;;3.92;2.08;;;;;;;1.60;49.52;100984.88;147958;1146;104448;-74
2021/03/20 09:50:53;;;;;;;4.47;2.50;;;;;;;1.53;47.92;100986.97;148039;1148;104470;-75
2021/03/20 09:53:56;;;;;;;5.45;2.70;;;;;;;1.45;51.36;100995.25;147931;1147;104513;-72
2021/03/20 09:57:37;;;;;;;5.22;2.50;;;;;;;1.48;51.49;100999.49;147358;1147;104500;-72
2021/03/20 10:01:10;;;;;;;11.00;4.50;;;;;;;1.55;49.50;100991.22;147841;1147;104537;-74
2021/03/20 10:04:33;;;;;;;6.28;2.90;;;;;;;1.62;49.13;100990.91;148023;1147;104553;-72
2021/03/20 10:07:39;;;;;;;6.00;3.15;;;;;;;1.83;46.17;101000.36;148014;1146;104546;-72
2021/03/20 10:10:49;;;;;;;8.83;3.60;;;;;;;2.04;50.27;100997.53;148026;1146;104857;-72
2021/03/20 10:13:53;;;;;;;4.10;2.15;;;;;;;2.06;49.19;101001.80;147214;1146;104484;-77
2021/03/20 10:17:13;;;;;;;4.57;2.50;;;;;;;2.05;51.24;101005.35;147860;1146;104617;-75
2021/03/20 10:20:21;;;;;;;6.80;2.27;;;;;;;2.09;45.70;101006.05;147834;1148;104520;-76
2021/03/20 10:23:33;;;;;;;4.67;2.12;;;;;;;1.72;45.82;100997.42;147973;1148;104643;-75
2021/03/20 10:26:44;;;;;;;4.75;2.40;;;;;;;1.40;47.34;100999.87;147944;1147;104518;-75
2021/03/20 10:29:47;;;;;;;7.90;3.80;;;;;;;1.38;48.65;100997.31;148073;1147;104497;-74
2021/03/20 10:33:02;;;;;;;4.78;2.40;;;;;;;1.30;48.22;101002.11;148056;1147;104915;-73
2021/03/20 10:36:19;;;;;;;5.35;3.05;;;;;;;1.34;45.22;101003.66;148137;1147;104390;-78
2021/03/20 10:39:30;;;;;;;6.37;3.50;;;;;;;1.44;48.32;100993.53;147620;1148;104552;-71
2021/03/20 10:42:37;;;;;;;7.42;4.55;;;;;;;1.39;48.35;101000.81;147772;1147;104441;-75
2021/03/20 10:45:43;;;;;;;4.90;2.60;;;;;;;1.46;46.02;100994.30;147671;1147;104472;-73
2021/03/20 10:48:48;;;;;;;7.95;3.95;;;;;;;1.56;47.26;100992.94;147770;1147;104566;-70
2021/03/20 10:51:54;;;;;;;7.03;3.50;;;;;;;1.70;47.24;100994.02;147294;1147;104547;-72
2021/03/20 10:55:02;;;;;;;8.85;4.22;;;;;;;1.63;42.07;101000.51;147643;1147;104569;-71
2021/03/20 10:58:07;;;;;;;10.28;4.78;;;;;;;1.49;46.97;101002.05;147633;1147;104548;-72
2021/03/20 11:01:12;;;;;;;11.18;6.03;;;;;;;1.56;47.35;101007.88;147645;1148;104507;-68
2021/03/20 11:04:28;;;;;;;41.60;16.00;;;;;;;1.77;47.42;100998.02;147623;1147;104654;-74
2021/03/20 11:07:32;;;;;;;14.50;7.60;;;;;;;1.79;47.57;100995.31;147653;1147;104710;-72
2021/03/20 11:10:38;;;;;;;200.50;67.58;;;;;;;2.08;48.49;100983.27;147704;1148;104498;-75
2021/03/20 11:13:44;;;;;;;26.07;11.13;;;;;;;2.44;48.56;100974.34;147753;1147;104500;-74
2021/03/20 11:16:53;;;;;;;12.28;5.05;;;;;;;2.59;46.90;100989.32;147809;1147;104439;-72
2021/03/20 11:20:04;;;;;;;8.33;4.10;;;;;;;2.47;45.37;100980.30;147862;1148;104632;-75
2021/03/20 11:23:19;;;;;;;5.67;3.47;;;;;;;2.31;43.59;100980.29;147333;1147;104577;-72
2021/03/20 11:26:33;;;;;;;7.00;3.97;;;;;;;1.98;43.25;100982.06;147399;1148;104547;-75
2021/03/20 11:29:37;;;;;;;7.95;3.52;;;;;;;1.77;46.62;100979.59;147761;1146;104475;-85
2021/03/20 11:32:44;;;;;;;6.12;3.40;;;;;;;1.69;44.00;100987.04;147801;1147;104545;-81
2021/03/20 11:35:49;;;;;;;4.83;2.60;;;;;;;1.72;46.23;100974.58;147763;1147;104652;-80
2021/03/20 11:38:52;;;;;;;8.93;5.22;;;;;;;1.83;44.27;100974.05;147623;1147;104547;-78
2021/03/20 11:42:00;;;;;;;6.05;3.27;;;;;;;1.86;45.16;100963.34;147626;1147;104607;-83
2021/03/20 11:45:08;;;;;;;7.10;3.72;;;;;;;1.92;42.88;100970.91;147805;1147;104547;-78
2021/03/20 11:48:21;;;;;;;5.92;2.90;;;;;;;1.67;43.12;100962.59;147838;1146;104553;-77
2021/03/20 11:51:26;;;;;;;6.85;2.70;;;;;;;1.48;40.80;100966.17;147784;1147;104716;-74
2021/03/20 11:54:37;;;;;;;6.60;3.47;;;;;;;1.59;44.23;100962.98;147782;1147;104532;-77
2021/03/20 11:57:44;;;;;;;12.17;5.50;;;;;;;1.69;46.39;100958.95;147603;1147;104461;-80
2021/03/20 12:00:48;;;;;;;51.05;19.35;;;;;;;1.90;45.19;100962.25;147776;1147;104473;-74
2021/03/20 12:03:53;;;;;;;15.20;6.42;;;;;;;2.13;43.09;100960.20;147937;1147;104545;-74
2021/03/20 12:07:25;;;;;;;9.10;4.90;;;;;;;2.00;42.38;100945.98;147752;1147;104694;-75
2021/03/20 12:10:28;;;;;;;6.10;3.25;;;;;;;1.96;40.92;100948.80;147956;1147;104531;-73
2021/03/20 12:13:47;;;;;;;72.10;29.32;;;;;;;1.93;44.63;100956.84;147894;1147;104446;-73
2021/03/20 12:16:51;;;;;;;10.60;4.85;;;;;;;2.11;42.16;100956.80;147673;1146;104470;-76
2021/03/20 12:20:01;;;;;;;17.98;7.53;;;;;;;2.07;43.95;100952.63;147789;1147;104520;-74
2021/03/20 12:23:17;;;;;;;5.40;2.90;;;;;;;2.03;44.84;100956.36;147655;1147;104544;-73
2021/03/20 12:26:29;;;;;;;5.83;2.77;;;;;;;2.01;44.12;100948.53;147866;1148;104550;-77
2021/03/20 12:29:42;;;;;;;29.57;12.95;;;;;;;2.19;45.55;100957.23;147803;1147;104569;-76
2021/03/20 12:32:47;;;;;;;19.25;8.85;;;;;;;2.40;45.32;100941.21;147921;1147;104479;-72
2021/03/20 12:35:51;;;;;;;8.70;4.55;;;;;;;2.51;45.38;100936.21;147605;1147;104502;-71
2021/03/20 12:38:55;;;;;;;5.75;2.60;;;;;;;2.45;43.48;100939.19;147422;1147;104531;-72
2021/03/20 12:41:58;;;;;;;39.45;19.25;;;;;;;2.40;45.10;100933.31;147558;1147;104914;-74
2021/03/20 12:45:02;;;;;;;26.65;12.00;;;;;;;2.51;44.96;100939.69;147637;1147;104480;-72
2021/03/20 12:48:09;;;;;;;8.63;4.37;;;;;;;2.45;42.79;100942.66;147790;1147;104553;-77
2021/03/20 12:51:20;;;;;;;6.45;3.37;;;;;;;2.20;41.09;100945.78;147871;1147;104589;-74
2021/03/20 12:54:26;;;;;;;7.30;3.80;;;;;;;2.12;41.67;100953.25;147734;1147;104563;-70
2021/03/20 12:57:33;;;;;;;4.15;2.58;;;;;;;1.95;43.85;100939.18;147838;1147;104513;-74
2021/03/20 13:00:36;;;;;;;22.17;12.68;;;;;;;1.99;44.17;100941.66;147837;1147;104538;-75
2021/03/20 13:03:39;;;;;;;20.10;9.08;;;;;;;2.14;43.61;100936.42;147896;1147;104499;-72
2021/03/20 13:06:42;;;;;;;8.13;4.25;;;;;;;2.19;42.89;100941.43;147821;1147;104568;-74
2021/03/20 13:09:46;;;;;;;9.47;4.83;;;;;;;1.99;39.34;100936.40;147622;1147;104532;-74
2021/03/20 13:12:50;;;;;;;5.50;3.22;;;;;;;1.81;41.18;100938.20;147594;1147;104480;-73
2021/03/20 13:15:53;;;;;;;3.85;2.33;;;;;;;1.68;41.86;100932.73;147581;1147;104568;-78
2021/03/20 13:18:56;;;;;;;10.57;7.27;;;;;;;1.63;40.69;100937.38;147719;1147;104560;-76
2021/03/20 13:22:00;;;;;;;7.35;4.33;;;;;;;1.56;42.24;100924.55;147462;1147;104610;-77
2021/03/20 13:25:06;;;;;;;4.70;2.42;;;;;;;1.57;41.36;100936.75;147924;1146;104556;-73
2021/03/20 13:28:12;;;;;;;5.47;2.67;;;;;;;1.60;42.05;100929.63;148092;1147;104531;-73
2021/03/20 13:31:16;;;;;;;5.58;2.80;;;;;;;1.61;40.98;100928.72;147639;1147;104497;-77
2021/03/20 13:34:19;;;;;;;6.87;3.27;;;;;;;1.76;42.84;100922.66;147777;1146;104469;-77
2021/03/20 13:37:22;;;;;;;5.55;3.15;;;;;;;1.89;41.50;100915.83;147750;1146;104480;-72
2021/03/20 13:40:28;;;;;;;5.22;2.72;;;;;;;1.91;39.14;100908.70;147329;1147;104525;-75
2021/03/20 13:43:32;;;;;;;41.67;13.90;;;;;;;1.99;42.31;100894.29;147708;1147;104569;-76
2021/03/20 13:46:36;;;;;;;68.00;32.85;;;;;;;2.24;44.29;100901.70;147655;1147;104476;-74
2021/03/20 13:49:39;;;;;;;66.55;21.30;;;;;;;2.32;43.10;100902.97;147510;1147;104553;-76
2021/03/20 13:52:42;;;;;;;405.93;130.13;;;;;;;2.28;42.99;100906.70;147388;1147;104526;-74
2021/03/20 13:55:48;;;;;;;163.43;49.50;;;;;;;2.47;43.13;100900.44;147661;1147;104605;-78
2021/03/20 13:58:51;;;;;;;62.53;21.63;;;;;;;2.55;43.46;100895.59;147820;1148;104447;-73
2021/03/20 14:01:55;;;;;;;43.52;15.10;;;;;;;2.47;43.15;100905.70;147777;1147;104549;-74
2021/03/20 14:04:58;;;;;;;311.90;109.83;;;;;;;2.39;44.40;100902.63;147745;1147;104473;-70
2021/03/20 14:08:01;;;;;;;25.77;10.20;;;;;;;2.36;41.08;100911.55;147751;1148;104492;-73
2021/03/20 14:11:06;;;;;;;13.32;5.17;;;;;;;2.19;41.28;100917.73;147556;1147;104580;-75
2021/03/20 14:14:10;;;;;;;11.88;5.28;;;;;;;1.90;41.79;100906.98;147824;1146;104477;-75
2021/03/20 14:17:13;;;;;;;120.35;53.35;;;;;;;1.92;44.22;100899.85;147842;1147;104549;-74